createdAt,value
2018-11-14T00:01:55.666Z,16.87
2018-11-14T00:04:23.791Z,16.33
2018-11-14T00:06:52.848Z,16.60
2018-11-14T00:09:21.539Z,16.70
2018-11-14T00:11:50.679Z,17.70
2018-11-14T00:14:18.884Z,18.10
2018-11-14T00:16:47.312Z,17.70
2018-11-14T00:19:15.669Z,17.73
2018-11-14T00:21:44.005Z,18.60
2018-11-14T00:24:12.284Z,17.83
2018-11-14T00:26:40.939Z,17.17
2018-11-14T00:29:09.161Z,18.50
2018-11-14T00:31:37.339Z,16.97
2018-11-14T00:34:05.972Z,17.67
2018-11-14T00:36:34.205Z,15.13
2018-11-14T00:39:03.732Z,18.03
2018-11-14T00:41:31.911Z,17.30
2018-11-14T00:44:00.022Z,17.43
2018-11-14T00:46:28.360Z,15.73
2018-11-14T00:48:56.510Z,15.90
2018-11-14T00:51:24.835Z,16.80
2018-11-14T00:53:52.947Z,16.07
2018-11-14T00:56:21.760Z,16.57
2018-11-14T00:58:49.904Z,16.97
2018-11-14T01:01:18.106Z,18.00
2018-11-14T01:03:46.212Z,18.23
2018-11-14T01:06:14.333Z,17.37
2018-11-14T01:08:42.546Z,18.20
2018-11-14T01:11:10.697Z,16.90
2018-11-14T01:13:38.836Z,18.20
2018-11-14T01:16:06.985Z,17.50
2018-11-14T01:18:35.089Z,18.00
2018-11-14T01:21:04.420Z,18.23
2018-11-14T01:23:32.568Z,19.10
2018-11-14T01:26:00.680Z,18.13
2018-11-14T01:28:28.796Z,18.30
2018-11-14T01:30:57.015Z,17.90
2018-11-14T01:33:25.158Z,17.10
2018-11-14T01:35:53.396Z,19.73
2018-11-14T01:38:21.514Z,16.60
2018-11-14T01:40:49.711Z,18.40
2018-11-14T01:43:17.858Z,18.17
2018-11-14T01:45:46.031Z,16.77
2018-11-14T01:48:14.191Z,18.20
2018-11-14T01:50:42.383Z,18.60
2018-11-14T01:53:10.547Z,18.83
2018-11-14T01:55:38.771Z,18.50
2018-11-14T01:58:06.879Z,17.97
2018-11-14T02:00:35.087Z,18.30
2018-11-14T02:03:03.300Z,18.87
2018-11-14T02:05:31.439Z,18.63
2018-11-14T02:07:59.598Z,18.87
2018-11-14T02:10:27.780Z,19.40
2018-11-14T02:12:55.976Z,18.80
2018-11-14T02:15:24.499Z,19.50
2018-11-14T02:17:53.499Z,19.10
2018-11-14T02:20:21.717Z,18.50
2018-11-14T02:22:49.879Z,18.43
2018-11-14T02:25:18.429Z,17.87
2018-11-14T02:27:46.773Z,18.23
2018-11-14T02:30:19.428Z,19.23
2018-11-14T02:32:47.577Z,18.50
2018-11-14T02:35:15.783Z,19.10
2018-11-14T02:37:44.623Z,18.13
2018-11-14T02:40:14.197Z,18.43
2018-11-14T02:42:42.397Z,19.10
2018-11-14T02:45:11.108Z,18.50
2018-11-14T02:47:39.304Z,20.77
2018-11-14T02:50:09.039Z,18.30
2018-11-14T02:52:37.135Z,18.30
2018-11-14T02:55:06.564Z,18.90
2018-11-14T02:57:35.208Z,17.80
2018-11-14T03:00:03.672Z,18.23
2018-11-14T03:02:31.821Z,19.20
2018-11-14T03:05:00.003Z,18.20
2018-11-14T03:07:28.189Z,18.47
2018-11-14T03:09:56.281Z,19.30
2018-11-14T03:12:24.479Z,18.30
2018-11-14T03:14:52.445Z,18.40
2018-11-14T03:17:20.545Z,17.70
2018-11-14T03:19:48.735Z,17.33
2018-11-14T03:22:17.704Z,18.27
2018-11-14T03:24:45.806Z,17.93
2018-11-14T03:27:15.091Z,17.60
2018-11-14T03:29:43.191Z,17.33
2018-11-14T03:32:11.337Z,16.93
2018-11-14T03:34:39.546Z,18.53
2018-11-14T03:37:07.716Z,17.03
2018-11-14T03:39:35.860Z,18.17
2018-11-14T03:42:04.071Z,18.30
2018-11-14T03:44:32.212Z,18.13
2018-11-14T03:47:00.502Z,17.30
2018-11-14T03:49:28.686Z,18.53
2018-11-14T03:51:56.875Z,18.60
2018-11-14T03:54:25.024Z,17.27
2018-11-14T03:56:53.211Z,19.63
2018-11-14T03:59:21.411Z,17.60
2018-11-14T04:01:49.678Z,18.90
2018-11-14T04:04:17.820Z,18.00
2018-11-14T04:06:45.905Z,19.47
2018-11-14T04:09:14.119Z,18.67
2018-11-14T04:11:42.544Z,17.43
2018-11-14T04:14:10.729Z,19.70
2018-11-14T04:16:38.824Z,18.27
2018-11-14T04:19:07.143Z,18.20
2018-11-14T04:21:35.279Z,19.50
2018-11-14T04:24:03.455Z,18.87
2018-11-14T04:26:31.577Z,17.60
2018-11-14T04:28:59.695Z,18.33
2018-11-14T04:31:27.787Z,19.20
2018-11-14T04:33:55.897Z,17.30
2018-11-14T04:36:23.984Z,17.63
2018-11-14T04:38:52.076Z,18.07
2018-11-14T04:41:20.333Z,18.03
2018-11-14T04:43:48.416Z,17.90
2018-11-14T04:46:16.523Z,17.00
2018-11-14T04:48:44.642Z,17.00
2018-11-14T04:51:12.705Z,17.97
2018-11-14T04:53:40.776Z,17.70
2018-11-14T04:56:08.867Z,17.70
2018-11-14T04:58:36.946Z,17.93
2018-11-14T05:01:05.068Z,19.40
2018-11-14T05:03:33.133Z,17.77
2018-11-14T05:06:01.225Z,17.03
2018-11-14T05:08:29.383Z,17.67
2018-11-14T05:10:57.460Z,17.23
2018-11-14T05:13:25.564Z,17.13
2018-11-14T05:15:53.639Z,17.57
2018-11-14T05:18:21.732Z,17.33
2018-11-14T05:20:49.828Z,18.20
2018-11-14T05:23:17.923Z,17.50
2018-11-14T05:25:46.078Z,17.80
2018-11-14T05:28:14.188Z,18.50
2018-11-14T05:30:42.289Z,17.77
2018-11-14T05:33:10.356Z,17.57
2018-11-14T05:35:38.448Z,17.73
2018-11-14T05:38:06.517Z,17.23
2018-11-14T05:40:34.588Z,17.90
2018-11-14T05:43:02.698Z,18.50
2018-11-14T05:45:30.819Z,17.50
2018-11-14T05:47:58.892Z,17.47
2018-11-14T05:50:27.059Z,17.90
2018-11-14T05:52:55.136Z,16.77
2018-11-14T05:55:23.244Z,17.50
2018-11-14T05:57:51.328Z,16.77
2018-11-14T06:00:34.602Z,17.63
2018-11-14T06:03:03.609Z,18.50
2018-11-14T06:05:31.683Z,17.40
2018-11-14T06:07:59.800Z,17.40
2018-11-14T06:10:27.896Z,16.93
2018-11-14T06:12:55.995Z,17.63
2018-11-14T06:15:24.154Z,16.13
2018-11-14T06:17:53.357Z,16.43
2018-11-14T06:20:22.228Z,16.27
2018-11-14T06:22:51.097Z,16.20
2018-11-14T06:25:23.287Z,17.40
2018-11-14T06:27:52.524Z,17.20
2018-11-14T06:30:21.090Z,17.00
2018-11-14T06:32:49.460Z,17.70
2018-11-14T06:35:18.253Z,17.40
2018-11-14T06:37:46.523Z,16.50
2018-11-14T06:40:14.588Z,17.70
2018-11-14T06:42:42.653Z,16.30
2018-11-14T06:45:13.000Z,17.23
2018-11-14T06:47:42.207Z,17.90
2018-11-14T06:50:10.902Z,16.93
2018-11-14T06:52:39.559Z,17.40
2018-11-14T06:55:09.303Z,16.57
2018-11-14T06:57:37.568Z,16.60
2018-11-14T07:00:11.504Z,17.50
2018-11-14T07:02:39.627Z,17.50
2018-11-14T07:05:09.824Z,17.80
2018-11-14T07:07:37.847Z,18.50
2018-11-14T07:10:07.856Z,16.90
2018-11-14T07:12:35.953Z,17.30
2018-11-14T07:15:05.137Z,16.60
2018-11-14T07:17:33.206Z,17.70
2018-11-14T07:20:01.344Z,17.70
2018-11-14T07:22:29.419Z,18.00
2018-11-14T07:24:57.496Z,19.20
2018-11-14T07:27:26.686Z,17.57
2018-11-14T07:29:54.795Z,17.60
2018-11-14T07:32:22.888Z,18.57
2018-11-14T07:34:51.116Z,19.17
2018-11-14T07:37:19.228Z,17.13
2018-11-14T07:39:47.283Z,17.53
2018-11-14T07:42:15.345Z,17.73
2018-11-14T07:44:43.400Z,18.10
2018-11-14T07:47:11.490Z,19.20
2018-11-14T07:49:39.576Z,18.13
2018-11-14T07:52:07.670Z,17.97
2018-11-14T07:54:35.827Z,18.73
2018-11-14T07:57:03.872Z,18.20
2018-11-14T07:59:31.935Z,19.17
2018-11-14T08:02:00.062Z,19.13
2018-11-14T08:04:28.144Z,17.50
2018-11-14T08:06:56.227Z,17.80
2018-11-14T08:09:24.300Z,19.10
2018-11-14T08:11:52.400Z,19.13
2018-11-14T08:14:20.512Z,20.97
2018-11-14T08:16:48.615Z,20.30
2018-11-14T08:19:16.701Z,23.00
2018-11-14T08:21:44.772Z,20.10
2018-11-14T08:24:12.864Z,19.87
2018-11-14T08:26:40.928Z,19.83
2018-11-14T08:29:09.089Z,20.50
2018-11-14T08:31:37.199Z,20.63
2018-11-14T08:34:05.701Z,21.87
2018-11-14T08:36:33.777Z,20.30
2018-11-14T08:39:01.883Z,20.70
2018-11-14T08:41:29.960Z,22.57
2018-11-14T08:43:58.040Z,21.07
2018-11-14T08:46:26.222Z,21.37
2018-11-14T08:48:54.304Z,22.37
2018-11-14T08:51:22.392Z,22.40
2018-11-14T08:53:50.484Z,23.07
2018-11-14T08:56:18.567Z,23.00
2018-11-14T08:58:46.662Z,24.70
2018-11-14T09:01:14.727Z,24.80
2018-11-14T09:03:42.889Z,24.60
2018-11-14T09:06:10.966Z,35.83
2018-11-14T09:08:39.035Z,32.73
2018-11-14T09:11:07.230Z,36.63
2018-11-14T09:13:35.288Z,29.00
2018-11-14T09:16:03.368Z,28.97
2018-11-14T09:18:31.498Z,23.57
2018-11-14T09:20:59.512Z,25.30
2018-11-14T09:23:27.586Z,24.80
2018-11-14T09:25:55.674Z,23.80
2018-11-14T09:28:23.766Z,24.70
2018-11-14T09:30:52.853Z,24.30
2018-11-14T09:33:20.937Z,23.60
2018-11-14T09:35:49.047Z,23.47
2018-11-14T09:38:17.115Z,23.20
2018-11-14T09:40:45.510Z,23.10
2018-11-14T09:43:13.695Z,25.53
2018-11-14T09:45:41.830Z,27.57
2018-11-14T09:48:09.928Z,25.50
2018-11-14T09:50:38.022Z,23.20
2018-11-14T09:53:06.563Z,22.20
2018-11-14T09:55:34.640Z,24.47
2018-11-14T09:58:02.849Z,24.30
2018-11-14T10:00:32.362Z,23.77
2018-11-14T10:03:03.539Z,24.47
2018-11-14T10:05:31.726Z,24.43
2018-11-14T10:07:59.844Z,24.50
2018-11-14T10:10:28.048Z,24.73
2018-11-14T10:12:56.158Z,25.97
2018-11-14T10:15:24.880Z,23.20
2018-11-14T10:17:53.039Z,24.40
2018-11-14T10:20:23.250Z,25.80
2018-11-14T10:22:51.639Z,23.60
2018-11-14T10:25:19.992Z,22.73
2018-11-14T10:27:48.859Z,24.53
2018-11-14T10:30:21.667Z,24.43
2018-11-14T10:32:50.245Z,23.50
2018-11-14T10:35:18.440Z,23.30
2018-11-14T10:37:46.649Z,24.37
2018-11-14T10:40:18.292Z,25.37
2018-11-14T10:42:46.567Z,24.07
2018-11-14T10:45:15.918Z,24.37
2018-11-14T10:47:44.289Z,24.60
2018-11-14T10:50:15.651Z,23.50
2018-11-14T10:52:43.739Z,24.80
2018-11-14T10:55:12.730Z,23.40
2018-11-14T10:57:40.999Z,23.47
2018-11-14T11:00:18.897Z,24.10
2018-11-14T11:02:52.569Z,24.40
2018-11-14T11:05:26.096Z,23.60
2018-11-14T11:07:59.801Z,24.27
2018-11-14T11:10:33.368Z,28.27
2018-11-14T11:13:05.748Z,33.67
2018-11-14T11:15:39.319Z,25.93
2018-11-14T11:18:10.723Z,24.47
2018-11-14T11:20:39.075Z,26.60
2018-11-14T11:23:07.480Z,24.00
2018-11-14T11:25:35.644Z,25.67
2018-11-14T11:28:03.803Z,25.50
2018-11-14T11:30:31.970Z,26.27
2018-11-14T11:33:00.140Z,27.20
2018-11-14T11:35:28.377Z,25.63
2018-11-14T11:37:56.511Z,25.13
2018-11-14T11:40:24.571Z,24.80
2018-11-14T11:42:52.711Z,24.57
2018-11-14T11:45:20.788Z,22.97
2018-11-14T11:47:48.849Z,24.87
2018-11-14T11:50:16.932Z,24.40
2018-11-14T11:52:45.020Z,24.07
2018-11-14T11:55:13.176Z,26.43
2018-11-14T11:57:41.352Z,22.80
2018-11-14T12:00:11.521Z,23.03
2018-11-14T12:02:39.862Z,42.63
2018-11-14T12:05:09.352Z,29.33
2018-11-14T12:07:37.508Z,28.47
2018-11-14T12:10:06.299Z,27.77
2018-11-14T12:12:34.493Z,24.37
2018-11-14T12:15:02.666Z,24.50
2018-11-14T12:17:30.872Z,26.50
2018-11-14T12:19:58.996Z,25.87
2018-11-14T12:22:27.180Z,25.70
2018-11-14T12:24:55.372Z,26.30
2018-11-14T12:27:23.707Z,25.07
2018-11-14T12:29:51.793Z,23.80
2018-11-14T12:32:19.878Z,24.27
2018-11-14T12:34:48.127Z,26.03
2018-11-14T12:37:16.241Z,24.47
2018-11-14T12:39:44.387Z,25.60
2018-11-14T12:42:12.625Z,24.73
2018-11-14T12:44:40.747Z,26.90
2018-11-14T12:47:08.866Z,24.30
2018-11-14T12:50:41.444Z,25.00
2018-11-14T12:53:09.561Z,24.00
2018-11-14T12:55:37.753Z,23.53
2018-11-14T12:58:05.943Z,24.03
2018-11-14T13:00:34.108Z,23.00
2018-11-14T13:03:02.264Z,24.50
2018-11-14T13:05:30.459Z,23.60
2018-11-14T13:07:58.657Z,26.20
2018-11-14T13:10:26.804Z,24.37
2018-11-14T13:12:54.965Z,24.23
2018-11-14T13:15:23.159Z,23.13
2018-11-14T13:17:51.310Z,25.37
2018-11-14T13:20:21.107Z,23.23
2018-11-14T13:22:49.224Z,25.90
2018-11-14T13:25:17.397Z,24.60
2018-11-14T13:27:46.541Z,24.87
2018-11-14T13:30:17.149Z,24.50
2018-11-14T13:32:46.095Z,23.87
2018-11-14T13:35:15.576Z,24.40
2018-11-14T13:37:44.382Z,23.50
2018-11-14T13:40:12.479Z,24.60
2018-11-14T13:42:41.844Z,23.90
2018-11-14T13:45:11.555Z,23.27
2018-11-14T13:47:39.966Z,23.37
2018-11-14T13:50:19.434Z,22.80
2018-11-14T13:52:47.464Z,23.57
2018-11-14T13:55:16.856Z,23.87
2018-11-14T13:57:46.265Z,23.10
2018-11-14T14:00:16.465Z,23.47
2018-11-14T14:02:44.766Z,23.00
2018-11-14T14:05:14.276Z,24.10
2018-11-14T14:07:42.596Z,23.53
2018-11-14T14:10:11.944Z,24.00
2018-11-14T14:12:40.939Z,25.83
2018-11-14T14:15:11.455Z,22.70
2018-11-14T14:17:39.592Z,24.60
2018-11-14T14:20:08.636Z,27.13
2018-11-14T14:22:37.566Z,26.17
2018-11-14T14:25:07.313Z,33.10
2018-11-14T14:27:35.490Z,25.63
2018-11-14T14:30:03.888Z,24.57
2018-11-14T14:32:32.077Z,24.73
2018-11-14T14:35:00.825Z,22.90
2018-11-14T14:37:28.980Z,23.90
2018-11-14T14:39:57.137Z,24.97
2018-11-14T14:42:25.303Z,22.97
2018-11-14T14:44:53.500Z,24.30
2018-11-14T14:47:21.676Z,22.67
2018-11-14T14:49:49.804Z,24.10
2018-11-14T14:52:18.213Z,27.73
2018-11-14T14:54:46.385Z,37.60
2018-11-14T14:57:14.684Z,26.53
2018-11-14T14:59:43.023Z,28.70
2018-11-14T15:02:11.100Z,38.87
2018-11-14T15:04:39.316Z,32.93
2018-11-14T15:07:07.460Z,29.60
2018-11-14T15:09:35.709Z,27.00
2018-11-14T15:12:03.819Z,26.57
2018-11-14T15:14:32.048Z,22.90
2018-11-14T15:17:00.347Z,24.07
2018-11-14T15:19:28.571Z,24.30
2018-11-14T15:21:56.736Z,24.90
2018-11-14T15:24:24.937Z,23.50
2018-11-14T15:26:53.166Z,24.00
2018-11-14T15:29:21.337Z,24.47
2018-11-14T15:31:49.500Z,25.33
2018-11-14T15:34:17.686Z,24.37
2018-11-14T15:36:45.864Z,23.60
2018-11-14T15:39:14.053Z,22.93
2018-11-14T15:41:42.198Z,24.23
2018-11-14T15:44:10.360Z,23.73
2018-11-14T15:46:38.635Z,23.47
2018-11-14T15:49:06.870Z,23.90
2018-11-14T15:51:35.088Z,25.70
2018-11-14T15:54:03.322Z,24.50
2018-11-14T15:56:31.475Z,24.67
2018-11-14T15:58:59.636Z,28.40
2018-11-14T16:01:29.542Z,23.10
2018-11-14T16:03:59.105Z,22.87
2018-11-14T16:06:28.713Z,22.70
2018-11-14T16:08:57.976Z,21.60
2018-11-14T16:11:26.809Z,22.20
2018-11-14T16:14:00.658Z,23.33
2018-11-14T16:16:29.085Z,22.73
2018-11-14T16:18:57.792Z,21.37
2018-11-14T16:21:25.895Z,22.70
2018-11-14T16:24:01.142Z,22.40
2018-11-14T16:26:34.088Z,23.00
2018-11-14T16:29:20.675Z,23.30
2018-11-14T16:31:48.925Z,21.77
2018-11-14T16:34:17.109Z,22.33
2018-11-14T16:36:45.263Z,22.53
2018-11-14T16:39:13.713Z,22.27
2018-11-14T16:41:42.935Z,22.90
2018-11-14T16:44:11.120Z,21.83
2018-11-14T16:46:39.323Z,20.57
2018-11-14T16:49:07.623Z,21.00
2018-11-14T16:51:35.751Z,21.43
2018-11-14T16:54:03.947Z,21.87
2018-11-14T16:56:32.162Z,21.17
2018-11-14T16:59:00.284Z,22.00
2018-11-14T17:01:28.419Z,21.47
2018-11-14T17:03:56.545Z,21.67
2018-11-14T17:06:24.843Z,21.27
2018-11-14T17:08:53.919Z,21.80
2018-11-14T17:11:22.071Z,20.30
2018-11-14T17:13:50.253Z,22.40
2018-11-14T17:16:18.360Z,21.30
2018-11-14T17:18:46.848Z,26.20
2018-11-14T17:21:15.576Z,42.70
2018-11-14T17:23:43.671Z,26.43
2018-11-14T17:26:12.279Z,22.90
2018-11-14T17:28:40.416Z,22.20
2018-11-14T17:31:08.530Z,23.23
2018-11-14T17:33:36.649Z,22.80
2018-11-14T17:36:05.319Z,23.03
2018-11-14T17:38:33.512Z,22.43
2018-11-14T17:41:01.740Z,22.10
2018-11-14T17:43:29.957Z,22.10
2018-11-14T17:45:58.192Z,21.60
2018-11-14T17:48:26.329Z,22.40
2018-11-14T17:50:54.525Z,22.40
2018-11-14T17:53:22.741Z,21.13
2018-11-14T17:55:50.886Z,22.90
2018-11-14T17:58:19.136Z,23.97
2018-11-14T18:00:47.931Z,22.73
2018-11-14T18:03:16.301Z,23.20
2018-11-14T18:05:44.664Z,21.73
2018-11-14T18:08:13.053Z,22.40
2018-11-14T18:10:41.221Z,22.90
2018-11-14T18:13:09.417Z,20.90
2018-11-14T18:15:37.581Z,22.73
2018-11-14T18:18:05.916Z,20.57
2018-11-14T18:20:34.099Z,21.27
2018-11-14T18:23:02.601Z,21.43
2018-11-14T18:25:30.792Z,21.20
2018-11-14T18:27:59.082Z,23.10
2018-11-14T18:30:28.570Z,21.10
2018-11-14T18:32:57.511Z,22.80
2018-11-14T18:35:26.555Z,23.33
2018-11-14T18:37:55.700Z,21.73
2018-11-14T18:40:25.124Z,22.33
2018-11-14T18:42:53.321Z,22.90
2018-11-14T18:45:27.937Z,23.70
2018-11-14T18:47:56.868Z,22.23
2018-11-14T18:50:25.624Z,21.73
2018-11-14T18:52:53.851Z,24.30
2018-11-14T18:55:23.376Z,22.40
2018-11-14T18:57:51.821Z,24.53
2018-11-14T19:00:21.817Z,22.93
2018-11-14T19:02:50.191Z,24.03
2018-11-14T19:05:19.049Z,22.47
2018-11-14T19:07:47.321Z,23.83
2018-11-14T19:10:16.929Z,21.30
2018-11-14T19:12:46.992Z,22.47
2018-11-14T19:15:17.876Z,22.37
2018-11-14T19:17:46.029Z,22.40
2018-11-14T19:20:15.504Z,23.93
2018-11-14T19:22:43.988Z,24.17
2018-11-14T19:25:14.501Z,23.90
2018-11-14T19:27:43.665Z,22.90
2018-11-14T19:30:14.779Z,22.23
2018-11-14T19:32:43.937Z,22.50
2018-11-14T19:35:12.760Z,23.12
2018-11-14T19:37:42.222Z,22.63
2018-11-14T19:40:13.374Z,22.90
2018-11-14T19:42:41.984Z,22.10
2018-11-14T19:45:12.871Z,23.50
2018-11-14T19:47:41.672Z,22.40
2018-11-14T19:50:11.279Z,22.03
2018-11-14T19:52:39.408Z,20.23
2018-11-14T19:55:08.505Z,21.90
2018-11-14T19:57:36.850Z,21.50
2018-11-14T20:00:12.820Z,21.40
2018-11-14T20:02:41.189Z,21.23
2018-11-14T20:05:10.401Z,21.07
2018-11-14T20:07:38.642Z,22.27
2018-11-14T20:10:09.429Z,19.25
2018-11-14T20:12:37.713Z,21.17
2018-11-14T20:15:06.674Z,21.10
2018-11-14T20:17:34.896Z,21.17
2018-11-14T20:20:03.666Z,21.10
2018-11-14T20:22:31.860Z,21.90
2018-11-14T20:24:59.989Z,21.20
2018-11-14T20:27:28.057Z,21.77
2018-11-14T20:29:56.241Z,21.97
2018-11-14T20:32:24.397Z,20.63
2018-11-14T20:34:52.777Z,20.27
2018-11-14T20:37:20.961Z,20.80
2018-11-14T20:39:48.985Z,21.20
2018-11-14T20:42:17.068Z,21.83
2018-11-14T20:44:45.393Z,22.27
2018-11-14T20:47:13.551Z,21.70
2018-11-14T20:49:41.784Z,21.23
2018-11-14T20:52:10.152Z,21.23
2018-11-14T20:54:38.219Z,20.90
2018-11-14T20:57:06.424Z,21.73
2018-11-14T20:59:34.513Z,23.33
2018-11-14T21:02:02.744Z,24.40
2018-11-14T21:04:30.893Z,23.47
2018-11-14T21:06:59.003Z,22.80
2018-11-14T21:09:27.162Z,21.70
2018-11-14T21:11:55.286Z,21.27
2018-11-14T21:14:23.411Z,21.13
2018-11-14T21:16:51.491Z,22.52
2018-11-14T21:19:19.596Z,19.70
2018-11-14T21:21:47.740Z,20.92
2018-11-14T21:24:15.853Z,21.02
2018-11-14T21:26:43.930Z,20.92
2018-11-14T21:29:12.023Z,21.27
2018-11-14T21:31:40.132Z,19.35
2018-11-14T21:34:08.252Z,19.83
2018-11-14T21:36:36.376Z,21.07
2018-11-14T21:39:08.372Z,20.10
2018-11-14T21:41:36.563Z,20.72
2018-11-14T21:44:05.604Z,22.67
2018-11-14T21:46:33.804Z,21.55
2018-11-14T21:49:01.923Z,21.93
2018-11-14T21:51:30.080Z,21.87
2018-11-14T21:53:58.478Z,20.82
2018-11-14T21:56:26.664Z,19.73
2018-11-14T22:01:17.601Z,22.52
2018-11-14T22:03:45.718Z,21.87
2018-11-14T22:06:13.915Z,20.52
2018-11-14T22:08:42.033Z,20.17
2018-11-14T22:11:10.142Z,19.80
2018-11-14T22:13:38.268Z,21.90
2018-11-14T22:16:06.388Z,20.65
2018-11-14T22:18:34.663Z,20.00
2018-11-14T22:21:02.953Z,19.30
2018-11-14T22:23:31.108Z,21.12
2018-11-14T22:25:59.292Z,21.45
2018-11-14T22:28:27.477Z,20.70
2018-11-14T22:30:55.674Z,20.12
2018-11-14T22:33:23.835Z,21.65
2018-11-14T22:35:51.983Z,20.80
2018-11-14T22:38:20.210Z,21.57
2018-11-14T22:40:48.360Z,20.62
2018-11-14T22:43:16.535Z,20.37
2018-11-14T22:45:44.724Z,18.85
2018-11-14T22:48:12.883Z,21.87
2018-11-14T22:50:41.050Z,20.23
2018-11-14T22:53:09.214Z,21.00
2018-11-14T22:55:37.363Z,20.15
2018-11-14T22:58:05.455Z,19.53
2018-11-14T23:00:38.988Z,19.87
2018-11-14T23:03:07.120Z,20.02
2018-11-14T23:05:35.331Z,20.27
2018-11-14T23:08:03.511Z,20.62
2018-11-14T23:10:31.658Z,19.87
2018-11-14T23:12:59.816Z,20.62
2018-11-14T23:15:28.066Z,19.85
2018-11-14T23:17:57.193Z,19.40
2018-11-14T23:21:28.268Z,19.85
2018-11-14T23:23:56.443Z,20.12
2018-11-14T23:26:24.611Z,20.00
2018-11-14T23:28:52.792Z,20.80
2018-11-14T23:31:20.976Z,20.45
2018-11-14T23:33:49.142Z,21.50
2018-11-14T23:36:17.226Z,20.72
2018-11-14T23:38:45.404Z,19.90
2018-11-14T23:41:13.552Z,19.25
2018-11-14T23:43:41.708Z,18.10
2018-11-14T23:46:09.899Z,17.98
2018-11-14T23:48:38.062Z,17.52
2018-11-14T23:51:06.626Z,17.00
2018-11-14T23:53:34.819Z,19.48
2018-11-14T23:56:03.062Z,19.90
2018-11-14T23:58:31.185Z,18.23
